Time;durP1;ratioP1;P1;durP2;ratioP2;P2;SDS_P1;SDS_P2;PMS_P1;PMS_P2;Temp;Humidity;BMP_temperature;BMP_pressure;BME280_temperature;BME280_humidity;BME280_pressure;Samples;Min_cycle;Max_cycle;Signal;HPM_P1;HPM_P2
2023/09/06 00:01:37;;;;;;;6.60;4.53;;;21.80;1.00;;;;;;5052177;28;20435;-75
2023/09/06 00:04:03;;;;;;;5.93;4.50;;;21.80;1.00;;;;;;5052115;28;20196;-75
2023/09/06 00:06:28;;;;;;;8.07;4.80;;;21.70;1.00;;;;;;5051799;28;20185;-75
2023/09/06 00:08:54;;;;;;;5.90;4.37;;;21.60;1.00;;;;;;5052451;28;20192;-75
2023/09/06 00:11:19;;;;;;;8.57;5.10;;;21.60;1.00;;;;;;5051547;28;20734;-75
2023/09/06 00:13:45;;;;;;;6.70;4.80;;;;;;;;;;5051633;28;20686;-72
2023/09/06 00:16:12;;;;;;;7.63;4.87;;;;;;;;;;5051866;28;20183;-75
2023/09/06 00:18:38;;;;;;;6.40;4.83;;;21.50;1.00;;;;;;5051840;28;20492;-76
2023/09/06 00:21:05;;;;;;;7.77;5.10;;;;;;;;;;5050826;28;20525;-75
2023/09/06 00:23:32;;;;;;;6.60;4.53;;;21.40;1.00;;;;;;5050143;28;20249;-75
2023/09/06 00:25:57;;;;;;;6.53;4.10;;;21.30;1.00;;;;;;5051960;28;20422;-75
2023/09/06 00:28:24;;;;;;;7.13;4.63;;;21.60;1.00;;;;;;5051428;28;20423;-75
2023/09/06 00:30:55;;;;;;;6.97;4.40;;;21.30;1.00;;;;;;5051916;28;20698;-75
2023/09/06 00:33:21;;;;;;;5.40;4.10;;;21.30;1.00;;;;;;5049710;28;20479;-75
2023/09/06 00:35:47;;;;;;;6.70;4.87;;;21.20;1.00;;;;;;5051450;28;20861;-75
2023/09/06 00:38:12;;;;;;;6.27;4.33;;;21.20;1.00;;;;;;5050210;28;20172;-75
2023/09/06 00:40:39;;;;;;;8.83;4.17;;;21.20;1.00;;;;;;5050729;28;20597;-76
2023/09/06 00:43:06;;;;;;;9.23;5.23;;;21.10;1.00;;;;;;5049954;28;20212;-75
2023/09/06 00:45:44;;;;;;;7.50;4.70;;;21.10;1.00;;;;;;5051442;28;20423;-76
2023/09/06 00:48:16;;;;;;;7.03;4.60;;;21.00;1.00;;;;;;5051302;28;20423;-75
2023/09/06 00:50:43;;;;;;;8.40;4.97;;;20.80;1.00;;;;;;5051497;28;20466;-75
2023/09/06 00:53:09;;;;;;;8.70;4.63;;;;;;;;;;5049740;28;20465;-75
2023/09/06 00:55:37;;;;;;;7.13;4.50;;;20.30;1.00;;;;;;5049890;28;20423;-75
2023/09/06 00:58:03;;;;;;;7.17;4.40;;;20.20;1.00;;;;;;5050806;28;20915;-75
2023/09/06 01:00:30;;;;;;;7.60;4.90;;;20.00;1.00;;;;;;5050614;28;20482;-75
2023/09/06 01:02:56;;;;;;;9.80;4.97;;;19.70;1.00;;;;;;5051008;28;20466;-75
2023/09/06 01:05:23;;;;;;;6.27;4.43;;;19.70;1.00;;;;;;5049609;28;20794;-75
2023/09/06 01:08:00;;;;;;;9.93;5.23;;;19.30;1.00;;;;;;5049443;28;20705;-75
2023/09/06 01:10:25;;;;;;;6.77;5.03;;;19.30;1.00;;;;;;5050740;28;20528;-75
2023/09/06 01:12:55;;;;;;;7.10;4.63;;;19.20;1.00;;;;;;5050076;28;20478;-74
2023/09/06 01:15:21;;;;;;;6.60;4.70;;;19.10;1.00;;;;;;5050000;28;20921;-75
2023/09/06 01:17:48;;;;;;;7.53;5.07;;;19.00;1.00;;;;;;5049183;28;20423;-75
2023/09/06 01:20:40;;;;;;;7.60;5.03;;;18.60;1.00;;;;;;5049658;28;20467;-75
2023/09/06 01:23:32;;;;;;;6.70;5.00;;;18.80;1.00;;;;;;5051107;28;20937;-74
2023/09/06 01:25:58;;;;;;;9.40;4.80;;;18.80;1.00;;;;;;5055388;28;21029;-75
2023/09/06 01:28:27;;;;;;;6.87;5.20;;;18.80;1.00;;;;;;5047450;28;20569;-75
2023/09/06 01:30:53;;;;;;;7.60;5.03;;;18.80;1.00;;;;;;5049505;28;20299;-75
2023/09/06 01:33:19;;;;;;;8.10;4.97;;;18.70;1.00;;;;;;5050905;28;20526;-75
2023/09/06 01:35:44;;;;;;;7.37;4.90;;;18.60;1.00;;;;;;5050408;28;20550;-74
2023/09/06 01:38:11;;;;;;;7.40;5.43;;;18.60;1.00;;;;;;5049495;28;20181;-75
2023/09/06 01:40:37;;;;;;;7.30;5.47;;;18.50;1.00;;;;;;5050512;28;20271;-74
2023/09/06 01:43:03;;;;;;;7.60;5.30;;;18.50;1.00;;;;;;5050648;28;20534;-75
2023/09/06 01:45:29;;;;;;;7.40;4.90;;;18.40;1.00;;;;;;5050745;28;20246;-75
2023/09/06 01:47:55;;;;;;;8.73;5.47;;;18.50;1.00;;;;;;5049542;28;20235;-75
2023/09/06 01:50:20;;;;;;;7.73;4.80;;;18.60;1.00;;;;;;5050948;28;21043;-75
2023/09/06 01:52:47;;;;;;;6.70;4.97;;;18.90;1.00;;;;;;5049873;28;20626;-75
2023/09/06 01:55:12;;;;;;;6.60;5.00;;;19.10;1.00;;;;;;5054431;28;20211;-74
2023/09/06 01:57:38;;;;;;;9.23;5.20;;;19.40;1.00;;;;;;5053663;28;20428;-75
2023/09/06 02:00:19;;;;;;;7.30;5.10;;;19.50;1.00;;;;;;5052647;28;20191;-75
2023/09/06 02:02:46;;;;;;;6.80;4.90;;;19.80;1.00;;;;;;5054091;28;20262;-75
2023/09/06 02:05:11;;;;;;;6.07;4.70;;;19.80;1.00;;;;;;5054210;28;20926;-75
2023/09/06 02:07:37;;;;;;;9.87;4.97;;;19.90;1.00;;;;;;5054252;28;20481;-75
2023/09/06 02:10:03;;;;;;;8.17;4.70;;;20.00;1.00;;;;;;5054769;28;20212;-75
2023/09/06 02:12:29;;;;;;;8.47;5.37;;;19.90;1.00;;;;;;5054650;28;20250;-75
2023/09/06 02:14:56;;;;;;;6.83;4.73;;;19.90;1.00;;;;;;5053727;28;20454;-75
2023/09/06 02:17:24;;;;;;;6.97;4.90;;;19.80;1.00;;;;;;5054742;28;20188;-75
2023/09/06 02:19:49;;;;;;;6.27;4.50;;;19.80;1.00;;;;;;5053383;28;20964;-75
2023/09/06 02:22:15;;;;;;;6.60;5.07;;;19.90;1.00;;;;;;5054644;28;20455;-75
2023/09/06 02:24:40;;;;;;;6.33;4.20;;;19.80;1.00;;;;;;5052075;28;20689;-75
2023/09/06 02:27:09;;;;;;;8.97;5.20;;;19.80;1.00;;;;;;5055225;28;20185;-75
2023/09/06 02:29:35;;;;;;;6.37;4.80;;;19.60;1.00;;;;;;5052527;28;20235;-75
2023/09/06 02:32:00;;;;;;;7.10;5.17;;;19.40;1.00;;;;;;5053585;28;20455;-75
2023/09/06 02:34:25;;;;;;;7.60;5.30;;;19.30;1.00;;;;;;5053864;28;20635;-75
2023/09/06 02:36:51;;;;;;;8.37;5.30;;;19.30;1.00;;;;;;5053607;28;20200;-75
2023/09/06 02:39:18;;;;;;;8.67;5.10;;;19.10;1.00;;;;;;5053015;28;20192;-75
2023/09/06 02:41:43;;;;;;;7.60;5.07;;;19.00;1.00;;;;;;5054080;28;20199;-75
2023/09/06 02:44:08;;;;;;;6.30;4.90;;;18.90;1.00;;;;;;5053604;28;20953;-75
2023/09/06 02:46:34;;;;;;;6.93;5.27;;;;;;;;;;5053662;28;20192;-75
2023/09/06 02:49:11;;;;;;;10.33;5.00;;;18.60;1.00;;;;;;5053731;28;20185;-75
2023/09/06 02:51:42;;;;;;;8.70;5.63;;;18.50;1.00;;;;;;5052196;28;20248;-74
2023/09/06 02:54:08;;;;;;;7.83;5.40;;;;;;;;;;5053630;28;20447;-74
2023/09/06 02:56:37;;;;;;;10.23;5.20;;;18.20;1.00;;;;;;5054222;28;20774;-75
2023/09/06 02:59:12;;;;;;;7.50;5.60;;;18.10;1.00;;;;;;5042547;28;20424;-75
2023/09/06 03:01:44;;;;;;;7.50;5.40;;;18.00;1.00;;;;;;5053664;28;20768;-75
2023/09/06 03:04:13;;;;;;;8.10;5.40;;;17.90;1.00;;;;;;5053275;28;20432;-75
2023/09/06 03:06:43;;;;;;;11.40;5.80;;;17.80;1.00;;;;;;5052075;28;20457;-74
2023/09/06 03:09:10;;;;;;;17.23;12.20;;;17.50;1.00;;;;;;5053515;28;20507;-74
2023/09/06 03:11:36;;;;;;;8.10;5.90;;;;;;;;;;5053289;28;20428;-75
2023/09/06 03:14:04;;;;;;;7.73;5.47;;;17.40;1.00;;;;;;5052939;28;20829;-75
2023/09/06 03:16:38;;;;;;;9.23;5.40;;;17.40;1.00;;;;;;5053648;28;20177;-74
2023/09/06 03:19:09;;;;;;;10.10;5.10;;;17.40;1.00;;;;;;5045633;28;20431;-75
2023/09/06 03:21:36;;;;;;;8.77;5.73;;;17.30;1.00;;;;;;5052043;28;20420;-75
2023/09/06 03:24:03;;;;;;;8.87;5.40;;;17.20;1.00;;;;;;5044727;28;20518;-75
2023/09/06 03:26:29;;;;;;;7.50;5.40;;;;;;;;;;5053021;28;20419;-75
2023/09/06 03:28:56;;;;;;;7.53;5.23;;;17.30;1.00;;;;;;5052718;28;20419;-75
2023/09/06 03:31:22;;;;;;;6.23;5.23;;;17.50;1.00;;;;;;5053019;28;20428;-74
2023/09/06 03:33:48;;;;;;;6.23;5.07;;;;;;;;;;5050771;28;20455;-75
2023/09/06 03:36:14;;;;;;;8.87;5.30;;;17.90;1.00;;;;;;5052745;28;20438;-75
2023/09/06 03:38:40;;;;;;;8.07;5.00;;;18.50;1.00;;;;;;5050875;28;20658;-75
2023/09/06 03:41:07;;;;;;;6.97;4.77;;;;;;;;;;5051948;28;20454;-75
2023/09/06 03:43:33;;;;;;;9.90;4.70;;;;;;;;;;5050898;28;20212;-75
2023/09/06 03:46:04;;;;;;;6.80;5.10;;;18.80;1.00;;;;;;5051869;28;20530;-75
2023/09/06 03:48:30;;;;;;;8.33;5.40;;;19.00;1.00;;;;;;5051115;28;20435;-75
2023/09/06 03:50:57;;;;;;;7.17;5.17;;;19.00;1.00;;;;;;5051742;28;20466;-75
2023/09/06 03:53:25;;;;;;;7.17;4.93;;;19.10;1.00;;;;;;5052326;28;20525;-75
2023/09/06 03:55:57;;;;;;;7.37;5.20;;;19.10;1.00;;;;;;5050339;28;20435;-74
2023/09/06 03:58:27;;;;;;;8.40;5.30;;;19.50;1.00;;;;;;5050658;28;20517;-75
2023/09/06 04:00:53;;;;;;;9.63;5.50;;;;;;;;;;5050340;28;20423;-75
2023/09/06 04:03:20;;;;;;;7.40;5.37;;;19.10;1.00;;;;;;5051609;28;20447;-75
2023/09/06 04:05:46;;;;;;;7.03;5.10;;;19.00;1.00;;;;;;5050113;28;20426;-75
2023/09/06 04:08:17;;;;;;;8.80;5.60;;;19.00;1.00;;;;;;5051577;28;20438;-75
2023/09/06 04:10:44;;;;;;;8.47;5.70;;;19.10;1.00;;;;;;5049867;28;20467;-74
2023/09/06 04:13:11;;;;;;;8.40;5.87;;;19.10;1.00;;;;;;5050053;28;20888;-75
2023/09/06 04:15:38;;;;;;;7.33;5.87;;;18.90;1.00;;;;;;5051607;28;20423;-75
2023/09/06 04:18:06;;;;;;;7.23;5.80;;;18.70;1.00;;;;;;5051348;28;20469;-73
2023/09/06 04:20:44;;;;;;;8.63;5.50;;;18.60;1.00;;;;;;5051486;28;20912;-75
2023/09/06 04:23:13;;;;;;;9.37;5.20;;;18.40;1.00;;;;;;5043578;28;20439;-75
2023/09/06 04:25:41;;;;;;;8.33;5.90;;;18.30;1.00;;;;;;5051280;28;20424;-75
2023/09/06 04:28:12;;;;;;;8.00;5.60;;;18.20;1.00;;;;;;5050118;28;20419;-75
2023/09/06 04:30:40;;;;;;;9.77;5.67;;;18.20;1.00;;;;;;5066948;28;21008;-75
2023/09/06 04:33:14;;;;;;;7.53;5.30;;;;;;;;;;5050714;28;20439;-75
2023/09/06 04:35:44;;;;;;;7.60;5.20;;;18.30;1.00;;;;;;5049780;28;20447;-75
2023/09/06 04:38:16;;;;;;;7.60;5.13;;;18.30;1.00;;;;;;5041831;28;20457;-75
2023/09/06 04:40:46;;;;;;;7.50;5.77;;;18.50;1.00;;;;;;5052570;28;20423;-75
2023/09/06 04:43:13;;;;;;;10.10;5.50;;;18.60;1.00;;;;;;5049627;28;20440;-74
2023/09/06 04:45:39;;;;;;;8.97;5.60;;;18.70;1.00;;;;;;5050831;28;20435;-75
2023/09/06 04:48:16;;;;;;;7.37;5.73;;;18.70;1.00;;;;;;5050892;28;20976;-75
2023/09/06 04:50:43;;;;;;;9.53;5.50;;;18.70;1.00;;;;;;5051046;28;20583;-74
2023/09/06 04:53:09;;;;;;;6.50;5.40;;;18.50;1.00;;;;;;5050099;28;20957;-75
2023/09/06 04:55:39;;;;;;;7.93;5.90;;;18.30;1.00;;;;;;5050935;28;20527;-75
2023/09/06 04:58:06;;;;;;;7.83;5.90;;;18.10;1.00;;;;;;5050581;28;20863;-74
2023/09/06 05:00:35;;;;;;;8.00;5.77;;;17.90;1.00;;;;;;5049290;28;20951;-75
2023/09/06 05:03:01;;;;;;;8.80;6.07;;;17.70;1.00;;;;;;5050192;28;20505;-75
2023/09/06 05:05:27;;;;;;;7.83;6.00;;;17.70;1.00;;;;;;5050938;28;20432;-74
2023/09/06 05:07:53;;;;;;;7.27;6.10;;;17.50;1.00;;;;;;5050294;28;20193;-74
2023/09/06 05:10:18;;;;;;;8.63;5.90;;;17.60;1.00;;;;;;5050827;28;20471;-75
2023/09/06 05:12:45;;;;;;;11.00;6.00;;;17.60;1.00;;;;;;5050403;28;20213;-74
2023/09/06 05:15:12;;;;;;;8.90;6.20;;;17.50;1.00;;;;;;5050629;28;20177;-73
2023/09/06 05:17:39;;;;;;;8.10;5.70;;;17.50;1.00;;;;;;5050821;28;20431;-75
2023/09/06 05:20:27;;;;;;;7.93;5.80;;;17.50;1.00;;;;;;5050145;28;20454;-74
2023/09/06 05:22:57;;;;;;;9.80;7.83;;;17.40;1.00;;;;;;5048761;28;20447;-74
2023/09/06 05:25:23;;;;;;;8.57;6.60;;;17.30;1.00;;;;;;5050267;28;20431;-75
2023/09/06 05:27:49;;;;;;;10.57;6.70;;;17.20;1.00;;;;;;5048532;28;20992;-74
2023/09/06 05:30:15;;;;;;;7.87;6.20;;;17.30;1.00;;;;;;5050547;28;20819;-75
2023/09/06 05:32:40;;;;;;;8.87;6.30;;;17.30;1.00;;;;;;5049099;28;20458;-75
2023/09/06 05:35:06;;;;;;;8.10;6.10;;;17.30;1.00;;;;;;5050128;28;20195;-75
2023/09/06 05:37:32;;;;;;;9.60;6.03;;;17.30;1.00;;;;;;5050573;28;20707;-75
2023/09/06 05:39:58;;;;;;;11.80;6.97;;;;;;;;;;5049909;28;20648;-75
2023/09/06 05:42:24;;;;;;;7.30;5.93;;;17.30;1.00;;;;;;5050235;28;20702;-75
2023/09/06 05:44:50;;;;;;;10.33;6.23;;;;;;;;;;5049245;28;20436;-75
2023/09/06 05:47:16;;;;;;;8.17;5.80;;;;;;;;;;5043305;28;20227;-75
2023/09/06 05:49:41;;;;;;;7.80;5.80;;;17.50;1.00;;;;;;5050320;28;20526;-74
2023/09/06 05:52:07;;;;;;;8.20;6.27;;;18.10;1.00;;;;;;5050624;28;20205;-75
2023/09/06 05:54:32;;;;;;;8.00;5.70;;;18.10;1.00;;;;;;5050051;28;20268;-74
2023/09/06 05:56:58;;;;;;;8.20;6.17;;;18.30;1.00;;;;;;5050552;28;20177;-74
2023/09/06 05:59:23;;;;;;;10.60;6.50;;;18.20;1.00;;;;;;5050199;28;20693;-75
2023/09/06 06:01:49;;;;;;;7.47;5.70;;;18.40;1.00;;;;;;5050677;28;20200;-73
2023/09/06 06:04:15;;;;;;;6.90;5.80;;;18.60;1.00;;;;;;5050144;28;20204;-75
2023/09/06 06:06:41;;;;;;;9.40;6.23;;;18.70;1.00;;;;;;5050483;28;20647;-75
2023/09/06 06:09:11;;;;;;;11.87;6.33;;;18.90;1.00;;;;;;5049856;28;20224;-75
2023/09/06 06:11:37;;;;;;;8.57;5.43;;;19.00;1.00;;;;;;5050330;28;20459;-75
2023/09/06 06:14:04;;;;;;;7.87;6.03;;;;;;;;;;5050088;28;20435;-75
2023/09/06 06:16:29;;;;;;;8.20;5.70;;;19.30;1.00;;;;;;5048844;28;20416;-75
2023/09/06 06:18:56;;;;;;;9.30;5.57;;;;;;;;;;5049631;28;20793;-74
2023/09/06 06:21:27;;;;;;;8.70;5.30;;;19.60;1.00;;;;;;5050268;28;20189;-75
2023/09/06 06:23:53;;;;;;;13.73;7.00;;;19.70;1.00;;;;;;5050144;28;20486;-75
2023/09/06 06:26:20;;;;;;;18.95;6.40;;;19.80;1.00;;;;;;5041344;28;20458;-74
2023/09/06 06:28:46;;;;;;;16.77;6.77;;;21.10;1.00;;;;;;5049848;28;20235;-75
2023/09/06 06:31:12;;;;;;;9.03;5.97;;;;;;;;;;5047347;28;20516;-74
2023/09/06 06:33:38;;;;;;;7.97;5.80;;;20.50;1.00;;;;;;5049494;28;20452;-74
2023/09/06 06:36:05;;;;;;;9.43;6.03;;;20.80;1.00;;;;;;5049202;28;20423;-75
2023/09/06 06:38:31;;;;;;;15.27;6.40;;;;;;;;;;5049951;28;20181;-75
2023/09/06 06:40:56;;;;;;;7.43;5.60;;;21.90;1.00;;;;;;5052202;28;20581;-74
2023/09/06 06:43:22;;;;;;;8.33;5.97;;;22.70;1.00;;;;;;5053775;28;20987;-75
2023/09/06 06:45:54;;;;;;;10.27;6.10;;;24.20;1.00;;;;;;5053428;28;20184;-75
2023/09/06 06:48:21;;;;;;;9.67;5.87;;;24.20;1.00;;;;;;5052157;28;20185;-75
2023/09/06 06:50:46;;;;;;;7.73;5.33;;;25.00;1.00;;;;;;5053905;28;20876;-74
2023/09/06 06:53:12;;;;;;;7.63;5.23;;;25.50;1.00;;;;;;5051992;28;20446;-76
2023/09/06 06:55:38;;;;;;;6.77;5.10;;;25.50;1.00;;;;;;5053871;28;20185;-75
2023/09/06 06:58:05;;;;;;;8.03;5.50;;;25.00;1.00;;;;;;5053884;28;20748;-75
2023/09/06 07:00:31;;;;;;;6.83;5.13;;;24.70;1.00;;;;;;5047832;28;20234;-75
2023/09/06 07:02:58;;;;;;;8.07;5.87;;;24.40;1.00;;;;;;5052021;28;20481;-75
2023/09/06 07:05:24;;;;;;;8.03;5.23;;;24.50;1.00;;;;;;5052039;28;20932;-75
2023/09/06 07:07:49;;;;;;;8.43;5.97;;;;;;;;;;5053734;28;20467;-75
2023/09/06 07:10:16;;;;;;;7.30;5.57;;;25.60;1.00;;;;;;5053039;28;20212;-75
2023/09/06 07:12:41;;;;;;;8.77;5.33;;;25.70;1.00;;;;;;5053258;28;20262;-76
2023/09/06 07:15:07;;;;;;;7.50;5.43;;;25.40;1.00;;;;;;5053116;28;20198;-75
2023/09/06 07:17:33;;;;;;;6.87;5.00;;;;;;;;;;5053515;28;20176;-75
2023/09/06 07:19:59;;;;;;;6.50;5.23;;;24.70;1.00;;;;;;5052677;28;20193;-74
2023/09/06 07:22:25;;;;;;;6.80;5.17;;;24.50;1.00;;;;;;5052679;28;21087;-75
2023/09/06 07:24:51;;;;;;;9.67;5.23;;;24.70;1.00;;;;;;5051670;28;20192;-75
2023/09/06 07:27:16;;;;;;;7.73;5.13;;;26.40;1.00;;;;;;5053120;28;20431;-75
2023/09/06 07:29:42;;;;;;;7.30;5.23;;;26.60;1.00;;;;;;5053123;28;20590;-75
2023/09/06 07:32:07;;;;;;;7.53;5.33;;;28.90;1.00;;;;;;5053528;28;20191;-76
2023/09/06 07:34:33;;;;;;;10.82;6.07;;;28.90;1.00;;;;;;5053178;28;20196;-76
2023/09/06 07:36:58;;;;;;;11.07;5.38;;;29.90;1.00;;;;;;5054569;28;20462;-76
2023/09/06 07:39:24;;;;;;;6.35;4.88;;;30.80;1.00;;;;;;5054809;28;20215;-76
2023/09/06 07:41:51;;;;;;;7.32;5.05;;;31.50;1.00;;;;;;5054968;28;20177;-77
2023/09/06 07:44:18;;;;;;;5.97;4.72;;;32.40;1.00;;;;;;5054315;28;20211;-77
2023/09/06 07:46:48;;;;;;;6.63;4.70;;;32.50;1.00;;;;;;5054738;28;20700;-76
2023/09/06 07:49:16;;;;;;;6.95;4.90;;;32.70;1.00;;;;;;5053390;28;20662;-77
2023/09/06 07:51:42;;;;;;;6.47;4.75;;;32.70;1.00;;;;;;5055014;28;20632;-77
2023/09/06 07:54:09;;;;;;;6.47;4.97;;;33.10;1.00;;;;;;5053917;28;20291;-76
2023/09/06 07:56:34;;;;;;;6.13;5.05;;;33.70;1.00;;;;;;5054908;28;20439;-77
2023/09/06 07:59:00;;;;;;;9.65;5.13;;;34.20;1.00;;;;;;5050154;28;20173;-77
2023/09/06 08:01:25;;;;;;;5.82;4.78;;;34.80;1.00;;;;;;5053807;28;20271;-77
2023/09/06 08:03:51;;;;;;;7.28;4.57;;;34.90;1.00;;;;;;5054634;28;20212;-77
2023/09/06 08:06:17;;;;;;;6.13;4.63;;;35.20;1.00;;;;;;5052564;28;20721;-77
2023/09/06 08:08:43;;;;;;;9.98;4.72;;;34.90;1.00;;;;;;5054227;28;20191;-76
2023/09/06 08:11:09;;;;;;;7.15;4.95;;;33.90;1.00;;;;;;5054271;28;20204;-76
2023/09/06 08:13:37;;;;;;;6.32;4.75;;;33.20;1.00;;;;;;5054125;28;20234;-77
2023/09/06 08:16:03;;;;;;;8.80;5.00;;;;;;;;;;5054075;28;20273;-76
2023/09/06 08:18:28;;;;;;;6.80;4.80;;;33.00;1.00;;;;;;5052965;28;20201;-77
2023/09/06 08:20:54;;;;;;;6.00;4.63;;;33.30;1.00;;;;;;5054212;28;20554;-76
2023/09/06 08:23:20;;;;;;;6.70;5.20;;;33.60;1.00;;;;;;5053021;28;20230;-77
2023/09/06 08:25:46;;;;;;;6.85;5.03;;;34.30;1.00;;;;;;5053920;28;20184;-77
2023/09/06 08:28:14;;;;;;;5.90;5.30;;;34.60;1.00;;;;;;5054308;28;20180;-77
2023/09/06 08:30:41;;;;;;;5.40;4.53;;;34.90;1.00;;;;;;5053338;28;20338;-77
2023/09/06 08:33:07;;;;;;;9.35;4.85;;;35.20;1.00;;;;;;5053216;28;20192;-77
2023/09/06 08:35:32;;;;;;;5.68;4.90;;;35.20;1.00;;;;;;5053796;28;20574;-77
2023/09/06 08:37:58;;;;;;;5.75;5.00;;;35.90;1.00;;;;;;5053633;28;20204;-77
2023/09/06 08:40:24;;;;;;;7.85;5.38;;;36.40;1.00;;;;;;5052694;28;20184;-77
2023/09/06 08:42:52;;;;;;;6.78;4.63;;;36.50;1.00;;;;;;5053764;28;20211;-76
2023/09/06 08:45:21;;;;;;;7.28;4.70;;;36.10;1.00;;;;;;5053180;28;20188;-77
2023/09/06 08:47:48;;;;;;;6.63;4.47;;;36.50;1.00;;;;;;5052759;28;20203;-77
2023/09/06 08:50:14;;;;;;;7.00;5.13;;;37.00;1.00;;;;;;5051451;28;20211;-77
2023/09/06 08:52:41;;;;;;;5.82;4.32;;;37.40;1.00;;;;;;5054149;28;20200;-77
2023/09/06 08:55:10;;;;;;;7.13;4.93;;;37.80;1.00;;;;;;5053475;28;20207;-77
2023/09/06 08:57:37;;;;;;;5.47;4.32;;;38.20;1.00;;;;;;5053660;28;20267;-77
2023/09/06 09:00:03;;;;;;;5.13;4.50;;;38.60;1.00;;;;;;5053586;28;20655;-77
2023/09/06 09:02:29;;;;;;;5.00;4.50;;;38.80;1.00;;;;;;5052322;28;20285;-77
2023/09/06 09:04:55;;;;;;;6.43;4.80;;;39.00;1.00;;;;;;5052950;28;20213;-77
2023/09/06 09:07:21;;;;;;;5.22;4.60;;;39.20;1.00;;;;;;5053178;28;20205;-75
2023/09/06 09:10:04;;;;;;;6.68;4.72;;;39.20;1.00;;;;;;5053576;28;20208;-77
2023/09/06 09:12:30;;;;;;;5.47;4.50;;;38.80;1.00;;;;;;5052866;28;20323;-77
2023/09/06 09:14:57;;;;;;;6.38;4.80;;;38.80;1.00;;;;;;5053137;28;20185;-77
2023/09/06 09:17:24;;;;;;;7.75;4.85;;;39.00;1.00;;;;;;5053309;28;20267;-78
2023/09/06 09:19:51;;;;;;;5.00;4.50;;;39.20;1.00;;;;;;5053431;28;20198;-77
2023/09/06 09:22:24;;;;;;;7.35;4.70;;;39.20;1.00;;;;;;5052570;28;20193;-77
2023/09/06 09:24:57;;;;;;;5.55;4.40;;;39.40;1.00;;;;;;5051656;28;20186;-77
2023/09/06 09:27:23;;;;;;;5.47;4.63;;;39.30;1.00;;;;;;5053062;28;20407;-77
2023/09/06 09:29:49;;;;;;;6.22;4.70;;;39.30;1.00;;;;;;5053612;28;20709;-77
2023/09/06 09:32:15;;;;;;;8.20;4.53;;;38.80;1.00;;;;;;5053729;28;20181;-77
2023/09/06 09:34:41;;;;;;;6.32;5.40;;;38.60;1.00;;;;;;5053812;28;20169;-77
2023/09/06 09:37:10;;;;;;;4.82;4.30;;;39.00;1.00;;;;;;5053539;28;20176;-77
2023/09/06 09:39:35;;;;;;;5.45;4.53;;;39.00;1.00;;;;;;5068641;28;20199;-77
2023/09/06 09:42:01;;;;;;;5.80;4.63;;;39.70;1.00;;;;;;5053407;28;20184;-77
2023/09/06 09:44:26;;;;;;;9.70;4.45;;;39.80;1.00;;;;;;5052701;28;20184;-77
2023/09/06 09:46:56;;;;;;;9.32;4.50;;;40.40;1.00;;;;;;5052407;28;20574;-78
2023/09/06 09:49:22;;;;;;;5.10;4.20;;;40.20;1.00;;;;;;5051158;28;20214;-77
2023/09/06 09:51:50;;;;;;;6.80;4.40;;;40.20;1.00;;;;;;5053195;28;20227;-77
2023/09/06 09:54:20;;;;;;;5.82;4.32;;;40.50;1.00;;;;;;5053098;28;20304;-77
2023/09/06 09:57:05;;;;;;;6.15;4.30;;;40.90;1.00;;;;;;5053579;28;20176;-77
2023/09/06 09:59:33;;;;;;;6.18;4.43;;;40.90;1.00;;;;;;5052387;28;20177;-78
2023/09/06 10:02:00;;;;;;;7.20;4.50;;;40.40;1.00;;;;;;5052014;28;20172;-77
2023/09/06 10:04:29;;;;;;;8.38;4.63;;;40.30;1.00;;;;;;5052248;28;20184;-77
2023/09/06 10:06:55;;;;;;;6.25;4.20;;;40.30;1.00;;;;;;5051343;28;20189;-77
2023/09/06 10:09:21;;;;;;;9.88;4.75;;;40.80;1.00;;;;;;5052907;28;20181;-77
2023/09/06 10:11:49;;;;;;;5.25;4.57;;;40.50;1.00;;;;;;5053497;28;20577;-77
2023/09/06 10:14:17;;;;;;;8.68;4.78;;;40.30;1.00;;;;;;5052795;28;20188;-77
2023/09/06 10:16:44;;;;;;;4.75;3.78;;;40.70;1.00;;;;;;5057087;28;20180;-77
2023/09/06 10:19:11;;;;;;;4.68;4.00;;;41.20;1.00;;;;;;5056714;28;20184;-78
2023/09/06 10:21:38;;;;;;;5.55;4.60;;;41.00;1.00;;;;;;5055855;28;20176;-77
2023/09/06 10:24:15;;;;;;;7.65;4.60;;;41.00;1.00;;;;;;5056565;28;20200;-78
2023/09/06 10:26:43;;;;;;;5.00;4.50;;;40.60;1.00;;;;;;5048175;28;20638;-77
2023/09/06 10:29:09;;;;;;;5.80;4.40;;;40.80;1.00;;;;;;5057149;28;20206;-78
2023/09/06 10:31:45;;;;;;;5.15;4.40;;;41.20;1.00;;;;;;5056269;28;20200;-78
2023/09/06 10:34:13;;;;;;;5.82;4.40;;;41.40;1.00;;;;;;5056251;28;20682;-77
2023/09/06 10:36:57;;;;;;;7.35;4.22;;;41.50;1.00;;;;;;5056013;28;20176;-77
2023/09/06 10:39:25;;;;;;;5.88;4.30;;;42.10;1.00;;;;;;5055795;28;20177;-78
2023/09/06 10:42:11;;;;;;;6.40;3.97;;;43.10;1.00;;;;;;5056524;28;20169;-77
2023/09/06 10:44:58;;;;;;;9.93;4.55;;;44.00;1.00;;;;;;5055455;28;20181;-77
2023/09/06 10:47:28;;;;;;;5.97;4.00;;;44.10;1.00;;;;;;5037723;28;20220;-78
2023/09/06 10:50:22;;;;;;;8.25;4.07;;;44.00;1.00;;;;;;5056221;28;20292;-78
2023/09/06 10:52:53;;;;;;;5.60;4.20;;;43.30;1.00;;;;;;5048743;28;20196;-77
2023/09/06 10:55:21;;;;;;;4.45;3.92;;;42.80;1.00;;;;;;5055626;28;20192;-77
2023/09/06 10:58:02;;;;;;;4.63;4.00;;;42.20;1.00;;;;;;5056212;28;20184;-77
2023/09/06 11:00:34;;;;;;;6.85;4.35;;;42.70;1.00;;;;;;5070037;28;20189;-77
2023/09/06 11:03:09;;;;;;;6.70;3.92;;;42.90;1.00;;;;;;5055572;28;20675;-76
2023/09/06 11:05:39;;;;;;;6.75;4.30;;;42.20;1.00;;;;;;5054950;28;20584;-77
2023/09/06 11:08:08;;;;;;;6.68;4.60;;;42.00;1.00;;;;;;5055318;28;20198;-77
2023/09/06 11:10:35;;;;;;;5.07;4.40;;;42.50;1.00;;;;;;5054791;28;20212;-77
2023/09/06 11:13:12;;;;;;;4.80;4.07;;;43.10;1.00;;;;;;5054948;28;20197;-77
2023/09/06 11:15:38;;;;;;;5.43;4.38;;;42.60;1.00;;;;;;5055094;28;20219;-77
2023/09/06 11:18:04;;;;;;;5.47;3.85;;;;;;;;;;5055172;28;20621;-77
2023/09/06 11:20:32;;;;;;;4.55;3.97;;;43.20;1.00;;;;;;5054407;28;20185;-77
2023/09/06 11:22:59;;;;;;;5.10;4.13;;;43.10;1.00;;;;;;5054751;28;20249;-77
2023/09/06 11:25:26;;;;;;;5.88;4.07;;;43.60;1.00;;;;;;5052926;28;20208;-77
2023/09/06 11:27:56;;;;;;;4.32;3.70;;;43.60;1.00;;;;;;5054867;28;20184;-77
2023/09/06 11:30:23;;;;;;;8.38;4.18;;;43.60;1.00;;;;;;5054562;28;20208;-77
2023/09/06 11:32:53;;;;;;;4.93;4.13;;;42.90;1.00;;;;;;5054219;28;20223;-77
2023/09/06 11:35:22;;;;;;;4.90;4.00;;;43.20;1.00;;;;;;5053623;28;20211;-78
2023/09/06 11:37:51;;;;;;;6.45;4.07;;;43.30;1.00;;;;;;5045527;28;20191;-77
2023/09/06 11:40:20;;;;;;;5.78;3.70;;;44.10;1.00;;;;;;5054189;28;20185;-77
2023/09/06 11:42:53;;;;;;;8.85;4.10;;;44.60;1.00;;;;;;5054975;28;20208;-77
2023/09/06 11:45:24;;;;;;;5.25;4.47;;;44.10;1.00;;;;;;5055398;28;20231;-77
2023/09/06 11:47:53;;;;;;;8.88;3.25;;;44.70;1.00;;;;;;5053320;28;20635;-77
2023/09/06 11:50:23;;;;;;;9.80;3.40;;;45.70;1.00;;;;;;5053138;28;20239;-77
2023/09/06 11:52:51;;;;;;;4.60;3.78;;;46.30;1.00;;;;;;5054417;28;20199;-78
2023/09/06 11:55:19;;;;;;;4.80;4.10;;;46.40;1.00;;;;;;5054620;28;20700;-78
2023/09/06 11:57:57;;;;;;;5.53;3.80;;;46.30;1.00;;;;;;5054357;28;20191;-77
2023/09/06 12:00:36;;;;;;;4.47;3.80;;;45.20;1.00;;;;;;5053357;28;20263;-78
2023/09/06 12:03:07;;;;;;;4.45;3.63;;;44.90;1.00;;;;;;5048300;28;20215;-77
2023/09/06 12:05:40;;;;;;;13.30;3.75;;;45.60;1.00;;;;;;5054215;28;20188;-78
2023/09/06 12:08:07;;;;;;;4.45;3.35;;;46.40;1.00;;;;;;5054171;28;20188;-77
2023/09/06 12:10:34;;;;;;;5.00;3.70;;;46.50;1.00;;;;;;5052786;28;20204;-78
2023/09/06 12:13:00;;;;;;;4.75;3.35;;;46.50;1.00;;;;;;5054117;28;20223;-77
2023/09/06 12:15:26;;;;;;;5.32;3.80;;;47.20;1.00;;;;;;5054275;28;20654;-78
2023/09/06 12:17:51;;;;;;;4.63;3.60;;;47.40;1.00;;;;;;5054250;28;20185;-78
2023/09/06 12:20:23;;;;;;;5.40;3.35;;;47.40;1.00;;;;;;5054156;28;20207;-78
2023/09/06 12:22:49;;;;;;;3.83;3.22;;;48.00;1.00;;;;;;5054147;28;20196;-78
2023/09/06 12:25:16;;;;;;;4.65;3.55;;;47.90;1.00;;;;;;5054349;28;20184;-78
2023/09/06 12:27:42;;;;;;;4.38;3.55;;;47.90;1.00;;;;;;5053692;28;20212;-78
2023/09/06 12:30:09;;;;;;;6.00;3.53;;;47.80;1.00;;;;;;5053894;28;20250;-78
2023/09/06 12:32:37;;;;;;;4.38;3.70;;;;;;;;;;5053875;28;20410;-78
2023/09/06 12:35:04;;;;;;;4.07;3.20;;;47.80;1.00;;;;;;5052603;28;20234;-78
2023/09/06 12:37:29;;;;;;;5.00;3.33;;;47.40;1.00;;;;;;5054257;28;20188;-78
2023/09/06 12:39:55;;;;;;;4.07;3.53;;;47.50;1.00;;;;;;5053912;28;20709;-78
2023/09/06 12:42:20;;;;;;;4.00;3.28;;;47.50;1.00;;;;;;5053637;28;20686;-79
2023/09/06 12:44:46;;;;;;;4.72;3.30;;;47.40;1.00;;;;;;5052991;28;20319;-78
2023/09/06 12:47:14;;;;;;;4.05;3.40;;;46.70;1.00;;;;;;5054179;28;20728;-78
2023/09/06 12:49:40;;;;;;;4.18;3.45;;;46.00;1.00;;;;;;5052827;28;20603;-77
2023/09/06 12:52:05;;;;;;;5.13;3.40;;;46.70;1.00;;;;;;5053166;28;20226;-77
2023/09/06 12:54:31;;;;;;;8.38;3.50;;;46.70;1.00;;;;;;5052780;28;20187;-77
2023/09/06 12:56:56;;;;;;;4.20;3.67;;;46.90;1.00;;;;;;5053917;28;20539;-78
2023/09/06 12:59:22;;;;;;;5.50;3.47;;;46.90;1.00;;;;;;5052727;28;20193;-78
2023/09/06 13:01:49;;;;;;;4.43;3.20;;;45.90;1.00;;;;;;5053121;28;20543;-79
2023/09/06 13:04:14;;;;;;;4.55;3.63;;;46.10;1.00;;;;;;5053046;28;20203;-78
2023/09/06 13:06:40;;;;;;;3.72;3.10;;;46.90;1.00;;;;;;5052884;28;20188;-78